createdAt,value
2022-10-12T00:00:08.305Z,11.87
2022-10-12T00:05:19.359Z,11.99
2022-10-12T00:10:23.392Z,12.08
2022-10-12T00:15:26.768Z,12.35
2022-10-12T00:20:30.020Z,12.40
2022-10-12T00:25:37.705Z,12.50
2022-10-12T00:30:41.468Z,12.55
2022-10-12T00:35:44.772Z,12.61
2022-10-12T00:40:48.276Z,12.41
2022-10-12T00:45:51.449Z,12.36
2022-10-12T00:50:56.376Z,12.33
2022-10-12T00:56:02.574Z,12.38
2022-10-12T01:01:08.429Z,12.32
2022-10-12T01:06:12.593Z,12.19
2022-10-12T01:11:15.619Z,12.12
2022-10-12T01:16:44.430Z,11.98
2022-10-12T01:22:07.964Z,11.84
2022-10-12T01:27:26.398Z,11.82
2022-10-12T01:32:29.937Z,11.43
2022-10-12T01:37:53.757Z,11.65
2022-10-12T01:42:58.726Z,11.60
2022-10-12T01:48:02.359Z,11.58
2022-10-12T01:53:22.769Z,11.54
2022-10-12T01:59:03.229Z,11.53
2022-10-12T02:04:36.112Z,11.58
2022-10-12T02:09:41.390Z,11.48
2022-10-12T02:14:49.102Z,11.51
2022-10-12T02:19:58.981Z,11.49
2022-10-12T02:25:07.641Z,11.33
2022-10-12T02:30:12.228Z,11.34
2022-10-12T02:35:24.530Z,11.24
2022-10-12T02:40:37.596Z,11.27
2022-10-12T02:45:45.520Z,11.30
2022-10-12T02:50:50.477Z,11.31
2022-10-12T02:55:57.032Z,11.31
2022-10-12T03:01:00.281Z,11.32
2022-10-12T03:06:03.425Z,11.35
2022-10-12T03:11:09.154Z,11.35
2022-10-12T03:16:12.868Z,11.40
2022-10-12T03:21:16.324Z,11.35
2022-10-12T03:26:19.929Z,11.22
2022-10-12T03:31:23.459Z,11.21
2022-10-12T03:36:26.991Z,11.19
2022-10-12T03:41:30.630Z,11.07
2022-10-12T03:46:34.151Z,11.02
2022-10-12T03:51:37.113Z,10.92
2022-10-12T03:56:40.659Z,10.97
2022-10-12T04:01:43.803Z,10.93
2022-10-12T04:06:47.803Z,10.93
2022-10-12T04:11:50.925Z,10.89
2022-10-12T04:16:55.504Z,10.98
2022-10-12T04:21:58.649Z,11.04
2022-10-12T04:27:02.305Z,11.29
2022-10-12T04:32:08.861Z,11.50
2022-10-12T04:37:15.861Z,11.60
2022-10-12T04:42:18.931Z,11.71
2022-10-12T04:47:22.213Z,11.92
2022-10-12T04:52:25.401Z,12.07
2022-10-12T04:57:28.974Z,12.20
2022-10-12T05:02:32.934Z,12.29
2022-10-12T05:07:36.495Z,12.31
2022-10-12T05:12:39.998Z,12.51
2022-10-12T05:17:43.413Z,12.54
2022-10-12T05:22:47.096Z,12.71
2022-10-12T05:27:50.118Z,12.86
2022-10-12T05:32:53.545Z,13.05
2022-10-12T05:37:57.297Z,13.31
2022-10-12T05:43:01.095Z,13.47
2022-10-12T05:48:05.306Z,13.78
2022-10-12T05:53:08.336Z,14.15
2022-10-12T05:58:11.876Z,14.43
2022-10-12T06:03:18.453Z,14.48
2022-10-12T06:08:22.098Z,14.78
2022-10-12T06:13:26.627Z,15.05
2022-10-12T06:18:30.113Z,15.36
2022-10-12T06:23:33.549Z,15.50
2022-10-12T06:28:37.097Z,15.78
2022-10-12T06:33:40.711Z,16.01
2022-10-12T06:38:44.208Z,16.24
2022-10-12T06:43:47.460Z,16.50
2022-10-12T06:48:50.527Z,16.76
2022-10-12T06:53:57.058Z,16.98
2022-10-12T06:59:00.176Z,17.63
2022-10-12T07:04:03.730Z,18.77
2022-10-12T07:09:07.966Z,18.53
2022-10-12T07:14:11.113Z,20.41
2022-10-12T07:19:14.857Z,22.70
2022-10-12T07:24:18.417Z,21.46
2022-10-12T07:29:21.532Z,23.87
2022-10-12T07:34:24.786Z,22.40
2022-10-12T07:39:28.364Z,22.15
2022-10-12T07:44:32.318Z,25.29
2022-10-12T07:49:36.110Z,26.81
2022-10-12T07:54:39.534Z,27.60
2022-10-12T07:59:42.563Z,23.56
2022-10-12T08:04:46.311Z,21.65
2022-10-12T08:09:50.282Z,23.03
2022-10-12T08:14:53.697Z,24.43
2022-10-12T08:19:57.620Z,23.42
2022-10-12T08:25:00.578Z,25.52
2022-10-12T08:30:06.633Z,25.40
2022-10-12T08:35:10.225Z,27.87
2022-10-12T08:40:29.762Z,26.89
2022-10-12T08:45:46.898Z,26.19
2022-10-12T08:56:03.734Z,27.91
2022-10-12T09:01:15.709Z,28.25
2022-10-12T09:06:23.824Z,27.68
2022-10-12T09:11:33.555Z,26.79
2022-10-12T09:16:48.707Z,24.91
2022-10-12T09:21:52.539Z,23.57
2022-10-12T09:27:01.253Z,24.45
2022-10-12T09:32:39.913Z,23.71
2022-10-12T09:37:48.756Z,22.01
2022-10-12T09:42:54.093Z,23.10
2022-10-12T09:48:13.686Z,24.47
2022-10-12T09:53:20.455Z,24.04
2022-10-12T09:58:25.488Z,24.92
2022-10-12T10:03:31.470Z,26.01
2022-10-12T10:08:45.788Z,24.67
2022-10-12T10:13:55.015Z,25.19
2022-10-12T10:19:01.401Z,25.16
2022-10-12T10:24:08.404Z,24.31
2022-10-12T10:29:45.747Z,25.72
2022-10-12T10:34:48.838Z,24.04
2022-10-12T10:39:55.314Z,24.33
2022-10-12T10:45:05.335Z,23.22
2022-10-12T10:50:24.987Z,23.51
2022-10-12T10:55:51.395Z,25.13
2022-10-12T11:00:58.767Z,24.71
2022-10-12T11:06:24.736Z,24.58
2022-10-12T11:11:29.968Z,24.17
2022-10-12T11:16:45.804Z,23.38
2022-10-12T11:21:57.465Z,23.04
2022-10-12T11:27:14.063Z,23.63
2022-10-12T11:32:47.252Z,22.54
2022-10-12T11:37:56.267Z,22.05
2022-10-12T11:43:06.677Z,21.33
2022-10-12T11:48:18.030Z,21.11
2022-10-12T11:53:49.463Z,21.60
2022-10-12T11:59:01.421Z,22.29
2022-10-12T12:04:40.492Z,22.99
2022-10-12T12:09:48.021Z,23.55
2022-10-12T12:14:53.183Z,23.61
2022-10-12T12:19:58.779Z,24.27
2022-10-12T12:25:04.796Z,23.27
2022-10-12T12:30:24.761Z,22.78
2022-10-12T12:35:37.218Z,22.62
2022-10-12T12:40:42.222Z,23.31
2022-10-12T12:45:59.760Z,24.36
2022-10-12T12:51:04.947Z,24.80
2022-10-12T12:56:24.541Z,24.70
2022-10-12T13:02:06.296Z,25.47
2022-10-12T13:07:27.452Z,26.25
2022-10-12T13:12:37.313Z,25.07
2022-10-12T13:17:59.078Z,23.55
2022-10-12T13:23:09.200Z,23.98
2022-10-12T13:28:17.549Z,24.23
2022-10-12T13:33:41.629Z,24.07
2022-10-12T13:38:45.042Z,24.83
2022-10-12T13:43:50.544Z,25.01
2022-10-12T13:48:59.770Z,25.56
2022-10-12T13:54:16.191Z,25.68
2022-10-12T13:59:23.929Z,25.68
2022-10-12T14:04:30.006Z,26.14
2022-10-12T14:09:59.567Z,26.99
2022-10-12T14:15:05.125Z,25.29
2022-10-12T14:20:28.959Z,26.97
2022-10-12T14:25:33.604Z,26.62
2022-10-12T14:30:49.830Z,27.30
2022-10-12T14:36:12.814Z,26.23
2022-10-12T14:41:45.034Z,25.24
2022-10-12T14:46:54.089Z,23.40
2022-10-12T14:52:00.154Z,22.07
2022-10-12T14:57:17.016Z,22.65
2022-10-12T15:02:22.213Z,22.71
2022-10-12T15:07:34.442Z,22.08
2022-10-12T15:12:38.229Z,21.55
2022-10-12T15:17:42.359Z,21.15
2022-10-12T15:22:48.007Z,20.39
2022-10-12T15:27:51.944Z,19.91
2022-10-12T15:32:55.056Z,19.58
2022-10-12T15:37:58.574Z,19.40
2022-10-12T15:43:02.375Z,19.02
2022-10-12T15:48:08.058Z,18.88
2022-10-12T15:53:24.634Z,18.49
2022-10-12T15:58:28.069Z,18.25
2022-10-12T16:03:33.012Z,17.93
2022-10-12T16:08:37.297Z,17.66
2022-10-12T16:13:47.946Z,17.51
2022-10-12T16:18:54.875Z,17.28
2022-10-12T16:23:58.397Z,17.13
2022-10-12T16:29:02.113Z,17.14
2022-10-12T16:34:05.570Z,17.09
2022-10-12T16:39:09.582Z,17.05
2022-10-12T16:44:13.546Z,16.91
2022-10-12T16:49:17.356Z,17.00
2022-10-12T16:54:23.740Z,17.00
2022-10-12T16:59:27.934Z,16.98
2022-10-12T17:04:31.920Z,16.91
2022-10-12T17:09:35.451Z,16.87
2022-10-12T17:14:39.342Z,16.82
2022-10-12T17:19:43.150Z,16.74
2022-10-12T17:24:46.974Z,16.75
2022-10-12T17:29:50.648Z,16.68
2022-10-12T17:34:54.642Z,16.59
2022-10-12T17:39:58.378Z,16.57
2022-10-12T17:45:04.228Z,16.56
2022-10-12T17:50:07.854Z,16.57
2022-10-12T17:55:29.685Z,16.57
2022-10-12T18:00:35.617Z,16.54
2022-10-12T18:05:39.905Z,16.56
2022-10-12T18:10:43.263Z,16.53
2022-10-12T18:15:47.519Z,16.47
2022-10-12T18:20:51.271Z,16.39
2022-10-12T18:25:55.235Z,16.33
2022-10-12T18:30:58.938Z,16.26
2022-10-12T18:36:05.000Z,16.17
2022-10-12T18:41:14.095Z,16.29
2022-10-12T18:46:18.796Z,16.30
2022-10-12T18:51:31.449Z,16.24
2022-10-12T18:56:37.171Z,16.16
2022-10-12T19:01:42.629Z,16.22
2022-10-12T19:06:47.688Z,16.26
2022-10-12T19:11:52.692Z,16.22
2022-10-12T19:16:56.924Z,16.15
2022-10-12T19:22:02.462Z,15.92
2022-10-12T19:27:07.831Z,15.84
2022-10-12T19:32:12.971Z,15.82
2022-10-12T19:37:18.547Z,15.76
2022-10-12T19:42:22.452Z,15.71
2022-10-12T19:47:27.071Z,15.61
2022-10-12T19:52:31.397Z,15.62
2022-10-12T19:57:38.783Z,15.56
2022-10-12T20:02:45.429Z,15.55
2022-10-12T20:07:51.474Z,15.32
2022-10-12T20:13:00.912Z,15.43
2022-10-12T20:18:04.823Z,15.43
2022-10-12T20:23:12.897Z,15.52
2022-10-12T20:28:19.970Z,15.46
2022-10-12T20:33:24.183Z,15.48
2022-10-12T20:38:29.163Z,15.50
2022-10-12T20:43:33.760Z,15.50
2022-10-12T20:48:47.395Z,15.63
2022-10-12T20:53:53.154Z,15.65
2022-10-12T20:58:56.931Z,15.62
2022-10-12T21:04:00.987Z,15.63
2022-10-12T21:09:05.657Z,15.64
2022-10-12T21:14:13.112Z,15.59
2022-10-12T21:19:17.209Z,15.66
2022-10-12T21:24:21.105Z,15.60
2022-10-12T21:29:24.671Z,15.81
2022-10-12T21:34:28.209Z,15.82
2022-10-12T21:39:32.270Z,15.82
2022-10-12T21:44:36.104Z,15.83
2022-10-12T21:49:39.123Z,15.81
2022-10-12T21:54:42.779Z,15.58
2022-10-12T21:59:49.246Z,15.73
2022-10-12T22:04:52.383Z,15.66
2022-10-12T22:09:56.605Z,15.55
2022-10-12T22:14:59.668Z,15.56
2022-10-12T22:20:05.419Z,15.42
2022-10-12T22:25:08.790Z,15.30
2022-10-12T22:30:14.626Z,15.05
2022-10-12T22:35:17.902Z,15.01
2022-10-12T22:40:21.499Z,14.84
2022-10-12T22:45:28.057Z,14.65
2022-10-12T22:50:31.304Z,14.60
2022-10-12T22:55:34.671Z,14.42
2022-10-12T23:00:40.226Z,14.26
2022-10-12T23:05:52.424Z,14.08
2022-10-12T23:10:56.134Z,13.86
2022-10-12T23:16:12.697Z,13.75
2022-10-12T23:21:17.835Z,13.72
2022-10-12T23:26:25.490Z,13.56
2022-10-12T23:31:30.917Z,13.53
2022-10-12T23:36:34.823Z,13.45
2022-10-12T23:41:38.187Z,13.44
2022-10-12T23:46:41.636Z,13.45
2022-10-12T23:51:45.064Z,13.40
2022-10-12T23:56:48.499Z,13.35
